Time;durP1;ratioP1;P1;durP2;ratioP2;P2;SDS_P1;SDS_P2;PMS_P1;PMS_P2;Temp;Humidity;BMP_temperature;BMP_pressure;BME280_temperature;BME280_humidity;BME280_pressure;Samples;Min_cycle;Max_cycle;Signal;HPM_P1;HPM_P2
2020/12/18 00:01:22;;;;;;;16.30;10.15;;;;;;;;;;5073172;28;20043;-69
2020/12/18 00:03:48;;;;;;;16.23;9.85;;;;;;;;;;5054974;28;20023;-69
2020/12/18 00:06:15;;;;;;;15.68;9.88;;;;;;;;;;5038399;28;20024;-69
2020/12/18 00:08:40;;;;;;;15.55;10.93;;;;;;;;;;5073083;28;20035;-69
2020/12/18 00:11:06;;;;;;;18.45;10.90;;;;;;;;;;5054999;28;20024;-69
2020/12/18 00:13:32;;;;;;;18.13;12.18;;;;;;;;;;5072875;28;20048;-70
2020/12/18 00:15:57;;;;;;;23.33;13.77;;;;;;;;;;5072794;28;20032;-70
2020/12/18 00:18:23;;;;;;;18.08;13.00;;;;;;;;;;5054909;28;20013;-69
2020/12/18 00:20:49;;;;;;;21.05;13.40;;;;;;;;;;5072557;28;20391;-69
2020/12/18 00:23:15;;;;;;;25.50;15.43;;;;;;;;;;5055137;28;20032;-69
2020/12/18 00:25:45;;;;;;;28.70;16.52;;;;;;;;;;5072758;28;20390;-68
2020/12/18 00:28:10;;;;;;;18.42;12.75;;;;;;;;;;5055077;28;20511;-69
2020/12/18 00:30:36;;;;;;;22.42;14.82;;;;;;;;;;5038397;28;20111;-68
2020/12/18 00:33:01;;;;;;;23.75;15.30;;;;;;;;;;5072787;28;20016;-69
2020/12/18 00:35:27;;;;;;;25.52;15.95;;;;;;;;;;5072845;28;20098;-68
2020/12/18 00:37:53;;;;;;;23.65;15.38;;;;;;;;;;5072733;28;20169;-69
2020/12/18 00:40:18;;;;;;;24.55;15.88;;;;;;;;;;5072685;28;20032;-69
2020/12/18 00:42:44;;;;;;;26.10;15.68;;;;;;;;;;5072517;28;20099;-68
2020/12/18 00:45:12;;;;;;;21.83;14.95;;;;;;;;;;5054601;28;20029;-68
2020/12/18 00:47:38;;;;;;;16.98;11.10;;;;;;;;;;5072552;28;20017;-68
2020/12/18 00:50:05;;;;;;;22.92;14.43;;;;;;;;;;5074877;28;20035;-70
2020/12/18 00:52:31;;;;;;;22.17;13.18;;;;;;;;;;5058347;28;20436;-69
2020/12/18 00:54:57;;;;;;;17.35;10.23;;;;;;;;;;5075820;28;20115;-71
2020/12/18 00:57:25;;;;;;;19.95;13.45;;;;;;;;;;5058470;28;20016;-69
2020/12/18 00:59:52;;;;;;;26.63;15.75;;;;;;;;;;5058216;28;20024;-69
2020/12/18 01:02:34;;;;;;;19.75;13.10;;;;;;;;;;5058274;28;20020;-71
2020/12/18 01:05:01;;;;;;;23.45;15.10;;;;;;;;;;5058169;28;20028;-72
2020/12/18 01:07:27;;;;;;;23.27;14.32;;;;;;;;;;5058033;28;20016;-72
2020/12/18 01:09:52;;;;;;;26.08;15.52;;;;;;;;;;5058017;28;20028;-72
2020/12/18 01:12:18;;;;;;;23.83;15.27;;;;;;;;;;5058572;28;20420;-72
2020/12/18 01:14:44;;;;;;;23.35;15.07;;;;;;;;;;5075952;28;20029;-72
2020/12/18 01:17:11;;;;;;;23.67;14.85;;;;;;;;;;5057928;28;20028;-72
2020/12/18 01:19:37;;;;;;;23.27;15.48;;;;;;;;;;5058458;28;20024;-71
2020/12/18 01:22:03;;;;;;;20.88;14.57;;;;;;;;;;5057398;28;20040;-69
2020/12/18 01:24:41;;;;;;;18.08;12.25;;;;;;;;;;5057806;28;20036;-69
2020/12/18 01:27:08;;;;;;;22.92;14.75;;;;;;;;;;5057753;28;20059;-68
2020/12/18 01:29:34;;;;;;;22.35;13.50;;;;;;;;;;5041204;28;20102;-67
2020/12/18 01:32:00;;;;;;;20.92;13.98;;;;;;;;;;5057606;28;20032;-68
2020/12/18 01:34:26;;;;;;;20.95;14.18;;;;;;;;;;5057536;28;20043;-68
2020/12/18 01:36:52;;;;;;;20.90;13.77;;;;;;;;;;5057451;28;20060;-67
2020/12/18 01:39:38;;;;;;;18.75;11.98;;;;;;;;;;5060235;28;20117;-68
2020/12/18 01:42:04;;;;;;;21.55;14.10;;;;;;;;;;5057390;28;20044;-68
2020/12/18 01:44:30;;;;;;;19.08;12.85;;;;;;;;;;5057269;28;20413;-68
2020/12/18 01:46:58;;;;;;;20.58;13.45;;;;;;;;;;5057279;28;20498;-69
2020/12/18 01:49:25;;;;;;;17.77;11.63;;;;;;;;;;5057328;28;20031;-70
2020/12/18 01:51:53;;;;;;;21.70;13.98;;;;;;;;;;5057191;28;20078;-69
2020/12/18 01:54:38;;;;;;;18.20;12.13;;;;;;;;;;5075031;28;20059;-69
2020/12/18 01:57:04;;;;;;;19.80;13.68;;;;;;;;;;5056988;28;20458;-70
2020/12/18 01:59:38;;;;;;;14.05;8.82;;;;;;;;;;5056935;28;20016;-69
2020/12/18 02:02:11;;;;;;;23.63;13.90;;;;;;;;;;5056981;28;20056;-69
2020/12/18 02:04:44;;;;;;;21.83;14.55;;;;;;;;;;5056946;28;20471;-70
2020/12/18 02:07:15;;;;;;;19.88;12.95;;;;;;;;;;5057143;28;20090;-71
2020/12/18 02:09:52;;;;;;;22.02;13.60;;;;;;;;;;5057011;28;20036;-70
2020/12/18 02:12:21;;;;;;;16.42;11.23;;;;;;;;;;5056854;28;20541;-71
2020/12/18 02:14:51;;;;;;;19.15;13.30;;;;;;;;;;5056672;28;20489;-70
2020/12/18 02:17:17;;;;;;;22.38;13.52;;;;;;;;;;5056708;28;20064;-71
2020/12/18 02:19:51;;;;;;;18.15;11.43;;;;;;;;;;5040176;28;20070;-70
2020/12/18 02:22:22;;;;;;;19.52;12.43;;;;;;;;;;5074537;28;20036;-70
2020/12/18 02:25:07;;;;;;;21.30;13.23;;;;;;;;;;5056627;28;20498;-70
2020/12/18 02:27:33;;;;;;;21.70;13.02;;;;;;;;;;5056476;28;20028;-70
2020/12/18 02:30:04;;;;;;;21.70;13.40;;;;;;;;;;5040349;28;20470;-70
2020/12/18 02:32:34;;;;;;;23.55;14.05;;;;;;;;;;5056390;28;20024;-70
2020/12/18 02:35:04;;;;;;;16.05;10.38;;;;;;;;;;5056315;28;20029;-70
2020/12/18 02:37:34;;;;;;;;;;;;;;;;;;5056892;28;20410;-71
2020/12/18 02:40:00;;;;;;;23.10;12.88;;;;;;;;;;5056494;28;19909;-71
2020/12/18 02:42:44;;;;;;;18.95;11.75;;;;;;;;;;5074263;28;20060;-69
2020/12/18 02:45:10;;;;;;;24.58;14.82;;;;;;;;;;5056376;28;20032;-69
2020/12/18 02:47:38;;;;;;;17.45;10.98;;;;;;;;;;5056526;28;20099;-69
2020/12/18 02:50:10;;;;;;;23.58;13.52;;;;;;;;;;5056338;28;20067;-69
2020/12/18 02:52:46;;;;;;;19.65;13.18;;;;;;;;;;5056382;28;20025;-69
2020/12/18 02:55:30;;;;;;;25.73;14.82;;;;;;;;;;5074379;28;20058;-69
2020/12/18 02:58:13;;;;;;;25.98;14.85;;;;;;;;;;5056135;28;20031;-69
2020/12/18 03:00:48;;;;;;;28.30;15.60;;;;;;;;;;5055840;28;20055;-69
2020/12/18 03:03:14;;;;;;;25.25;15.88;;;;;;;;;;5055810;28;20482;-68
2020/12/18 03:05:41;;;;;;;22.95;13.05;;;;;;;;;;5039440;28;20032;-69
2020/12/18 03:08:15;;;;;;;23.08;14.00;;;;;;;;;;5055864;28;20062;-69
2020/12/18 03:10:41;;;;;;;23.33;15.07;;;;;;;;;;5055798;28;20024;-69
2020/12/18 03:13:07;;;;;;;24.20;14.38;;;;;;;;;;5073189;28;20498;-69
2020/12/18 03:15:34;;;;;;;24.23;15.50;;;;;;;;;;5055424;28;20032;-68
2020/12/18 03:18:22;;;;;;;25.55;15.38;;;;;;;;;;5055811;28;20013;-68
2020/12/18 03:20:48;;;;;;;26.45;15.80;;;;;;;;;;5055135;28;20127;-69
2020/12/18 03:23:31;;;;;;;27.63;15.68;;;;;;;;;;5073834;28;20063;-69
2020/12/18 03:26:15;;;;;;;23.45;14.27;;;;;;;;;;5055830;28;20040;-69
2020/12/18 03:28:46;;;;;;;;;;;;;;;;;;5055737;28;20119;-69
2020/12/18 03:31:11;;;;;;;27.13;15.63;;;;;;;;;;5038946;28;20004;-69
2020/12/18 03:33:38;;;;;;;37.83;19.98;;;;;;;;;;5055586;28;20443;-69
2020/12/18 03:36:26;;;;;;;29.83;17.25;;;;;;;;;;5072917;28;20119;-69
2020/12/18 03:38:53;;;;;;;23.15;15.23;;;;;;;;;;5054950;28;20447;-69
2020/12/18 03:41:20;;;;;;;29.13;15.82;;;;;;;;;;5055581;28;20032;-69
2020/12/18 03:43:45;;;;;;;26.83;16.60;;;;;;;;;;5073245;28;20391;-69
2020/12/18 03:46:12;;;;;;;29.77;16.63;;;;;;;;;;5055593;28;20085;-69
2020/12/18 03:49:07;;;;;;;28.17;16.35;;;;;;;;;;5060064;28;20115;-69
2020/12/18 03:52:02;;;;;;;25.50;15.70;;;;;;;;;;5063043;28;20045;-69
2020/12/18 03:54:33;;;;;;;25.13;16.30;;;;;;;;;;5055698;28;20024;-69
2020/12/18 03:57:19;;;;;;;29.17;16.27;;;;;;;;;;5071951;28;20485;-69
2020/12/18 04:00:00;;;;;;;22.80;14.77;;;;;;;;;;5055486;28;20099;-68
2020/12/18 04:02:48;;;;;;;26.63;14.77;;;;;;;;;;5055221;28;20074;-68
2020/12/18 04:05:16;;;;;;;27.95;16.83;;;;;;;;;;5055168;28;20025;-69
2020/12/18 04:07:43;;;;;;;25.35;16.38;;;;;;;;;;5055130;28;20066;-68
2020/12/18 04:10:23;;;;;;;28.02;16.92;;;;;;;;;;5055578;28;20533;-68
2020/12/18 04:13:09;;;;;;;26.38;16.00;;;;;;;;;;5073151;28;20049;-68
2020/12/18 04:15:34;;;;;;;25.27;16.48;;;;;;;;;;5055080;28;20025;-69
2020/12/18 04:18:00;;;;;;;28.27;15.90;;;;;;;;;;5054910;28;20063;-69
2020/12/18 04:20:25;;;;;;;26.92;15.60;;;;;;;;;;5054776;28;20391;-69
2020/12/18 04:23:11;;;;;;;26.40;15.77;;;;;;;;;;5073413;28;20041;-69
2020/12/18 04:26:04;;;;;;;25.20;14.82;;;;;;;;;;5059429;28;20040;-70
2020/12/18 04:28:30;;;;;;;26.65;16.27;;;;;;;;;;5058711;28;20037;-69
2020/12/18 04:30:56;;;;;;;22.73;14.70;;;;;;;;;;5042049;28;20024;-69
2020/12/18 04:33:22;;;;;;;26.67;16.10;;;;;;;;;;5058663;28;20029;-69
2020/12/18 04:35:48;;;;;;;23.08;13.98;;;;;;;;;;5058629;28;20025;-68
2020/12/18 04:38:20;;;;;;;20.88;12.13;;;;;;;;;;5058529;28;20383;-68
2020/12/18 04:40:58;;;;;;;24.35;15.00;;;;;;;;;;5058729;28;20033;-70
2020/12/18 04:43:33;;;;;;;29.73;17.27;;;;;;;;;;5058416;28;20035;-70
2020/12/18 04:46:05;;;;;;;25.45;15.32;;;;;;;;;;5058434;28;20547;-70
2020/12/18 04:48:36;;;;;;;36.72;19.55;;;;;;;;;;5058624;28;20036;-69
2020/12/18 04:51:03;;;;;;;30.30;17.23;;;;;;;;;;5058279;28;20033;-69
2020/12/18 04:53:36;;;;;;;23.05;16.00;;;;;;;;;;5058189;28;20536;-69
2020/12/18 04:56:25;;;;;;;22.67;14.60;;;;;;;;;;5058351;28;20060;-70
2020/12/18 04:59:01;;;;;;;20.33;14.80;;;;;;;;;;5058579;28;20025;-69
2020/12/18 05:01:54;;;;;;;24.55;14.70;;;;;;;;;;5042047;28;20122;-70
2020/12/18 05:04:22;;;;;;;24.38;16.27;;;;;;;;;;5041797;28;20029;-70
2020/12/18 05:06:59;;;;;;;23.45;15.70;;;;;;;;;;5058321;28;20047;-70
2020/12/18 05:09:37;;;;;;;22.02;15.05;;;;;;;;;;5058244;28;20028;-69
2020/12/18 05:12:06;;;;;;;19.30;13.13;;;;;;;;;;5058229;28;20029;-70
2020/12/18 05:14:33;;;;;;;20.80;15.25;;;;;;;;;;5058269;28;20024;-70
2020/12/18 05:17:08;;;;;;;24.55;15.13;;;;;;;;;;5058527;28;20029;-70
2020/12/18 05:19:34;;;;;;;22.27;14.30;;;;;;;;;;5057813;28;20024;-71
2020/12/18 05:22:22;;;;;;;29.50;18.95;;;;;;;;;;5075286;28;20062;-70
2020/12/18 05:25:00;;;;;;;27.60;17.92;;;;;;;;;;5057637;28;20363;-70
2020/12/18 05:27:30;;;;;;;23.55;16.70;;;;;;;;;;5058033;28;20032;-70
2020/12/18 05:30:03;;;;;;;26.27;17.80;;;;;;;;;;5057194;28;20451;-70
2020/12/18 05:32:53;;;;;;;33.80;20.48;;;;;;;;;;5033482;28;20041;-70
2020/12/18 05:35:23;;;;;;;30.52;19.55;;;;;;;;;;5056566;28;20035;-70
2020/12/18 05:38:02;;;;;;;32.15;20.40;;;;;;;;;;5056907;28;20463;-71
2020/12/18 05:40:51;;;;;;;24.02;15.70;;;;;;;;;;5066406;28;20033;-70
2020/12/18 05:43:22;;;;;;;28.25;16.25;;;;;;;;;;5056991;28;20456;-71
2020/12/18 05:46:14;;;;;;;24.90;16.10;;;;;;;;;;5057420;28;20036;-71
2020/12/18 05:48:58;;;;;;;24.45;15.68;;;;;;;;;;5057541;28;20035;-70
2020/12/18 05:51:28;;;;;;;26.77;15.95;;;;;;;;;;5057448;28;20028;-70
2020/12/18 05:54:13;;;;;;;24.00;15.82;;;;;;;;;;5057108;28;20038;-69
2020/12/18 05:56:48;;;;;;;26.45;16.25;;;;;;;;;;5057292;28;20097;-70
2020/12/18 05:59:18;;;;;;;24.60;16.10;;;;;;;;;;5057323;28;20035;-70
2020/12/18 06:02:09;;;;;;;28.05;16.58;;;;;;;;;;5037089;28;20108;-69
2020/12/18 06:04:38;;;;;;;23.13;14.82;;;;;;;;;;5057589;28;20032;-69
2020/12/18 06:07:14;;;;;;;26.27;16.30;;;;;;;;;;5057216;28;20384;-69
2020/12/18 06:10:07;;;;;;;25.27;15.95;;;;;;;;;;5057509;28;20086;-71
2020/12/18 06:13:00;;;;;;;26.52;16.80;;;;;;;;;;5074807;28;20029;-70
2020/12/18 06:15:27;;;;;;;26.05;15.85;;;;;;;;;;5056726;28;20475;-70
2020/12/18 06:17:54;;;;;;;30.63;16.45;;;;;;;;;;5040227;28;20111;-71
2020/12/18 06:20:20;;;;;;;24.13;13.43;;;;;;;;;;5056614;28;20028;-71
2020/12/18 06:22:57;;;;;;;27.38;16.77;;;;;;;;;;5040143;28;20082;-71
2020/12/18 06:25:40;;;;;;;25.13;16.27;;;;;;;;;;5056786;28;20025;-70
2020/12/18 06:28:32;;;;;;;26.63;16.02;;;;;;;;;;5050716;28;20044;-70
2020/12/18 06:31:24;;;;;;;27.67;16.35;;;;;;;;;;5056532;28;20036;-70
2020/12/18 06:34:29;;;;;;;31.98;18.95;;;;;;;;;;5074221;28;20036;-70
2020/12/18 06:37:29;;;;;;;29.92;16.48;;;;;;;;;;5068546;28;20048;-70
2020/12/18 06:40:28;;;;;;;34.60;20.80;;;;;;;;;;5059972;28;20062;-70
2020/12/18 06:43:12;;;;;;;35.35;20.48;;;;;;;;;;5074698;28;20394;-70
2020/12/18 06:46:07;;;;;;;31.48;18.45;;;;;;;;;;5073003;28;20044;-70
2020/12/18 06:49:01;;;;;;;30.98;18.10;;;;;;;;;;5073660;28;20124;-70
2020/12/18 06:51:45;;;;;;;31.92;18.17;;;;;;;;;;5074409;28;20048;-70
2020/12/18 06:54:21;;;;;;;31.00;18.10;;;;;;;;;;5056313;28;20046;-70
2020/12/18 06:57:15;;;;;;;31.83;18.00;;;;;;;;;;5056195;28;20482;-71
2020/12/18 06:59:47;;;;;;;30.73;17.50;;;;;;;;;;5074216;28;20032;-71
2020/12/18 07:02:31;;;;;;;29.10;17.52;;;;;;;;;;5055965;28;20031;-70
2020/12/18 07:04:57;;;;;;;33.97;19.33;;;;;;;;;;5056195;28;20115;-70
2020/12/18 07:07:22;;;;;;;34.45;19.88;;;;;;;;;;5073817;28;20116;-70
2020/12/18 07:09:48;;;;;;;29.90;16.73;;;;;;;;;;5056038;28;20024;-69
2020/12/18 07:12:14;;;;;;;23.27;12.23;;;;;;;;;;5074007;28;20012;-69
2020/12/18 07:14:39;;;;;;;19.83;10.52;;;;;;;;;;5055642;28;20065;-70
2020/12/18 07:17:07;;;;;;;19.95;11.07;;;;;;;;;;5039109;28;20130;-70
2020/12/18 07:19:33;;;;;;;26.20;13.52;;;;;;;;;;5073534;28;20047;-68
2020/12/18 07:22:30;;;;;;;19.17;11.25;;;;;;;;;;5060802;28;20131;-69
2020/12/18 07:24:56;;;;;;;22.80;12.98;;;;;;;;;;5073536;28;20120;-69
2020/12/18 07:27:21;;;;;;;26.13;15.20;;;;;;;;;;5073421;28;20077;-69
2020/12/18 07:29:47;;;;;;;27.63;15.07;;;;;;;;;;5073444;28;20051;-69
2020/12/18 07:32:12;;;;;;;21.58;11.45;;;;;;;;;;5073495;28;20025;-69
2020/12/18 07:34:38;;;;;;;18.55;11.23;;;;;;;;;;5073527;28;20036;-69
2020/12/18 07:37:12;;;;;;;35.10;19.60;;;;;;;;;;5073540;28;20665;-69
2020/12/18 07:39:38;;;;;;;38.80;20.80;;;;;;;;;;5073432;28;20074;-69
2020/12/18 07:42:03;;;;;;;37.10;20.63;;;;;;;;;;5073331;28;20091;-69
2020/12/18 07:44:30;;;;;;;37.53;21.15;;;;;;;;;;5073158;28;20107;-69
2020/12/18 07:46:56;;;;;;;32.85;19.33;;;;;;;;;;5073240;28;20031;-69
2020/12/18 07:49:24;;;;;;;40.40;21.45;;;;;;;;;;5054637;28;20387;-69
2020/12/18 07:51:50;;;;;;;40.95;21.42;;;;;;;;;;5072818;28;20103;-69
2020/12/18 07:54:20;;;;;;;37.00;21.98;;;;;;;;;;5072862;28;20120;-69
2020/12/18 07:56:46;;;;;;;42.20;22.30;;;;;;;;;;5073015;28;20379;-69
2020/12/18 07:59:12;;;;;;;46.53;25.25;;;;;;;;;;5077615;28;20027;-69
2020/12/18 08:01:38;;;;;;;41.42;21.42;;;;;;;;;;5079102;28;20395;-69
2020/12/18 08:04:04;;;;;;;43.80;23.98;;;;;;;;;;5079266;28;20016;-69
2020/12/18 08:06:32;;;;;;;44.72;25.63;;;;;;;;;;5079721;28;20028;-69
2020/12/18 08:08:57;;;;;;;39.72;23.00;;;;;;;;;;5079294;28;20032;-69
2020/12/18 08:11:24;;;;;;;41.78;23.80;;;;;;;;;;5080169;28;20025;-69
2020/12/18 08:13:50;;;;;;;40.50;22.02;;;;;;;;;;5079705;28;20428;-69
2020/12/18 08:16:17;;;;;;;40.58;22.77;;;;;;;;;;5079743;28;20060;-69
2020/12/18 08:18:43;;;;;;;47.50;24.17;;;;;;;;;;5079741;28;20066;-69
2020/12/18 08:21:09;;;;;;;37.65;22.10;;;;;;;;;;5078907;28;20039;-69
2020/12/18 08:23:36;;;;;;;38.05;22.13;;;;;;;;;;5079708;28;20021;-69
2020/12/18 08:26:04;;;;;;;38.60;22.80;;;;;;;;;;5079691;28;20024;-69
2020/12/18 08:28:29;;;;;;;42.70;24.17;;;;;;;;;;5079497;28;20050;-69
2020/12/18 08:30:56;;;;;;;40.40;23.30;;;;;;;;;;5079474;28;20025;-69
2020/12/18 08:33:22;;;;;;;39.67;23.70;;;;;;;;;;5079584;28;20086;-69
2020/12/18 08:35:52;;;;;;;40.45;24.45;;;;;;;;;;5079186;28;20048;-67
2020/12/18 08:38:17;;;;;;;38.17;24.50;;;;;;;;;;5061820;28;20036;-67
2020/12/18 08:40:43;;;;;;;45.30;25.88;;;;;;;;;;5079472;28;20254;-66
2020/12/18 08:43:09;;;;;;;39.50;24.20;;;;;;;;;;5079599;28;20031;-66
2020/12/18 08:45:44;;;;;;;34.85;22.20;;;;;;;;;;5079407;28;20024;-66
2020/12/18 08:48:10;;;;;;;36.78;20.85;;;;;;;;;;5079359;28;20059;-66
2020/12/18 08:50:38;;;;;;;38.78;21.83;;;;;;;;;;5079579;28;20476;-66
2020/12/18 08:53:10;;;;;;;37.17;22.25;;;;;;;;;;5080296;28;20025;-69
2020/12/18 08:55:37;;;;;;;38.13;22.30;;;;;;;;;;5083064;28;20028;-69
2020/12/18 08:58:09;;;;;;;36.63;22.00;;;;;;;;;;5061118;28;20017;-69
2020/12/18 09:00:35;;;;;;;34.78;20.65;;;;;;;;;;5061276;28;20035;-69
2020/12/18 09:03:01;;;;;;;36.28;21.83;;;;;;;;;;5080743;28;20449;-69
2020/12/18 09:05:30;;;;;;;36.60;21.25;;;;;;;;;;5061032;28;20382;-69
2020/12/18 09:07:57;;;;;;;39.30;22.90;;;;;;;;;;5079172;28;20012;-69
2020/12/18 09:10:30;;;;;;;35.60;22.15;;;;;;;;;;5076384;28;20068;-69
2020/12/18 09:12:56;;;;;;;36.63;21.80;;;;;;;;;;5078750;28;20056;-69
2020/12/18 09:15:22;;;;;;;38.30;22.70;;;;;;;;;;5058195;28;20023;-69
2020/12/18 09:17:57;;;;;;;33.20;20.05;;;;;;;;;;5075775;28;20560;-69
2020/12/18 09:20:24;;;;;;;34.92;19.63;;;;;;;;;;5078323;28;20046;-69
2020/12/18 09:22:56;;;;;;;41.65;23.33;;;;;;;;;;5077729;28;20044;-69
2020/12/18 09:25:21;;;;;;;41.45;23.13;;;;;;;;;;5075929;28;20031;-68
2020/12/18 09:27:51;;;;;;;41.13;23.85;;;;;;;;;;5075870;28;20020;-68
2020/12/18 09:30:20;;;;;;;39.58;23.35;;;;;;;;;;5075809;28;20032;-67
2020/12/18 09:32:45;;;;;;;40.58;23.02;;;;;;;;;;5057338;28;20025;-68
2020/12/18 09:35:11;;;;;;;44.50;25.05;;;;;;;;;;5075746;28;20028;-68
2020/12/18 09:37:36;;;;;;;41.72;24.80;;;;;;;;;;5057443;28;20025;-68
2020/12/18 09:40:02;;;;;;;40.08;23.05;;;;;;;;;;5075319;28;20020;-68
2020/12/18 09:42:27;;;;;;;38.97;22.15;;;;;;;;;;5095674;28;20378;-68
2020/12/18 09:44:53;;;;;;;51.08;26.25;;;;;;;;;;5085800;28;20372;-68
2020/12/18 09:47:18;;;;;;;46.03;25.33;;;;;;;;;;5062804;28;20462;-68
2020/12/18 09:49:44;;;;;;;38.78;22.15;;;;;;;;;;5068594;28;20033;-68
2020/12/18 09:52:09;;;;;;;42.67;24.05;;;;;;;;;;5062185;28;20468;-64
2020/12/18 09:54:35;;;;;;;47.75;25.67;;;;;;;;;;5064378;28;20497;-68
2020/12/18 09:57:00;;;;;;;46.47;25.60;;;;;;;;;;5075241;28;20410;-68
2020/12/18 09:59:26;;;;;;;49.00;26.15;;;;;;;;;;5073696;28;20020;-69
2020/12/18 10:01:52;;;;;;;48.95;26.88;;;;;;;;;;5045438;28;20458;-66
2020/12/18 10:04:17;;;;;;;46.35;26.50;;;;;;;;;;5051594;28;20025;-66
2020/12/18 10:06:43;;;;;;;42.13;23.15;;;;;;;;;;5062257;28;20023;-66
2020/12/18 10:09:08;;;;;;;44.60;24.30;;;;;;;;;;5053638;28;20033;-66
2020/12/18 10:11:34;;;;;;;48.53;27.38;;;;;;;;;;5054871;28;20024;-66
2020/12/18 10:13:59;;;;;;;43.08;24.52;;;;;;;;;;5054792;28;20159;-66
2020/12/18 10:16:25;;;;;;;44.72;26.55;;;;;;;;;;5054546;28;20475;-66
2020/12/18 10:18:50;;;;;;;50.97;27.40;;;;;;;;;;5054654;28;20029;-66
2020/12/18 10:21:16;;;;;;;49.90;26.63;;;;;;;;;;5053374;28;20120;-66
2020/12/18 10:23:41;;;;;;;52.53;27.73;;;;;;;;;;5054742;28;20021;-66
2020/12/18 10:26:07;;;;;;;54.72;29.13;;;;;;;;;;5080634;28;20058;-66
2020/12/18 10:28:32;;;;;;;56.47;30.58;;;;;;;;;;5055208;28;20055;-66
2020/12/18 10:30:58;;;;;;;53.15;29.48;;;;;;;;;;5054457;28;20075;-66
2020/12/18 10:33:24;;;;;;;51.75;28.80;;;;;;;;;;5069789;28;20033;-66
2020/12/18 10:35:49;;;;;;;57.78;30.80;;;;;;;;;;5054292;28;20099;-66
2020/12/18 10:38:15;;;;;;;59.20;30.90;;;;;;;;;;5054276;28;20020;-66
2020/12/18 10:40:41;;;;;;;56.70;29.42;;;;;;;;;;5055787;28;20051;-69
2020/12/18 10:43:06;;;;;;;51.25;29.13;;;;;;;;;;5069959;28;20024;-70
2020/12/18 10:45:31;;;;;;;34.03;18.45;;;;;;;;;;5055768;28;20017;-69
2020/12/18 10:47:57;;;;;;;55.33;29.50;;;;;;;;;;5041991;28;20060;-70
2020/12/18 10:50:22;;;;;;;55.95;31.77;;;;;;;;;;5061836;28;20028;-69
2020/12/18 10:52:48;;;;;;;58.10;31.80;;;;;;;;;;5084038;28;20048;-70
2020/12/18 10:55:13;;;;;;;51.50;28.33;;;;;;;;;;5056225;28;20024;-69
2020/12/18 10:57:39;;;;;;;51.00;28.35;;;;;;;;;;5073812;28;20028;-69
2020/12/18 11:00:04;;;;;;;49.40;25.80;;;;;;;;;;5074146;28;20470;-69
2020/12/18 11:02:33;;;;;;;57.05;30.48;;;;;;;;;;5073862;28;20029;-69
2020/12/18 11:04:58;;;;;;;59.40;30.45;;;;;;;;;;5073349;28;20067;-67
2020/12/18 11:07:24;;;;;;;55.28;28.52;;;;;;;;;;5049436;28;20032;-69
2020/12/18 11:09:49;;;;;;;55.95;30.42;;;;;;;;;;5062425;28;20434;-69
2020/12/18 11:12:15;;;;;;;58.70;30.63;;;;;;;;;;5069313;28;20398;-69
2020/12/18 11:14:40;;;;;;;57.63;32.13;;;;;;;;;;5047413;28;20020;-69
2020/12/18 11:17:06;;;;;;;59.40;32.05;;;;;;;;;;5035709;28;20029;-69
2020/12/18 11:19:32;;;;;;;58.22;31.20;;;;;;;;;;5053469;28;20013;-69
2020/12/18 11:21:57;;;;;;;39.15;20.55;;;;;;;;;;5072455;28;20103;-69
2020/12/18 11:24:23;;;;;;;36.80;18.80;;;;;;;;;;5061403;28;20051;-69
2020/12/18 11:26:50;;;;;;;36.28;19.58;;;;;;;;;;5081182;28;20035;-69
2020/12/18 11:29:15;;;;;;;45.13;21.52;;;;;;;;;;5068282;28;20475;-69
2020/12/18 11:31:41;;;;;;;41.15;20.77;;;;;;;;;;5075304;28;20035;-69
2020/12/18 11:34:07;;;;;;;46.00;21.23;;;;;;;;;;5072879;28;20070;-69
2020/12/18 11:36:34;;;;;;;38.25;19.55;;;;;;;;;;5055639;28;20029;-69
2020/12/18 11:39:00;;;;;;;68.10;37.08;;;;;;;;;;5069626;28;20039;-69
2020/12/18 11:41:25;;;;;;;63.50;35.53;;;;;;;;;;5067458;28;20394;-69
2020/12/18 11:43:51;;;;;;;64.90;34.83;;;;;;;;;;5054070;28;20100;-69
2020/12/18 11:46:16;;;;;;;69.50;35.60;;;;;;;;;;5048514;28;20033;-69
2020/12/18 11:48:42;;;;;;;66.40;35.42;;;;;;;;;;5073612;28;20033;-69
2020/12/18 11:51:07;;;;;;;67.72;35.08;;;;;;;;;;5055347;28;20024;-69
2020/12/18 11:53:34;;;;;;;59.83;32.30;;;;;;;;;;5073112;28;20058;-69
2020/12/18 11:56:00;;;;;;;64.45;33.47;;;;;;;;;;5073231;28;20115;-69
2020/12/18 11:58:25;;;;;;;62.20;33.90;;;;;;;;;;5069613;28;20066;-69
2020/12/18 12:00:52;;;;;;;63.95;34.47;;;;;;;;;;5093530;28;20024;-69
2020/12/18 12:03:17;;;;;;;68.32;34.65;;;;;;;;;;5093252;28;20020;-69
2020/12/18 12:05:43;;;;;;;64.63;35.13;;;;;;;;;;5069022;28;20027;-69
2020/12/18 12:08:08;;;;;;;69.10;37.38;;;;;;;;;;5072874;28;20397;-69
2020/12/18 12:10:35;;;;;;;71.78;43.67;;;;;;;;;;5072591;28;20035;-69
2020/12/18 12:13:01;;;;;;;69.60;40.50;;;;;;;;;;5072904;28;20066;-69
2020/12/18 12:15:26;;;;;;;65.22;38.53;;;;;;;;;;5072864;28;20479;-69
2020/12/18 12:17:52;;;;;;;64.55;36.50;;;;;;;;;;5073249;28;20038;-69
2020/12/18 12:20:17;;;;;;;67.85;36.85;;;;;;;;;;5055357;28;20433;-69
2020/12/18 12:22:46;;;;;;;61.65;35.30;;;;;;;;;;5038491;28;20059;-66
2020/12/18 12:25:12;;;;;;;63.15;35.30;;;;;;;;;;5072907;28;20020;-67
2020/12/18 12:27:37;;;;;;;62.65;35.25;;;;;;;;;;5073062;28;20104;-67
2020/12/18 12:30:03;;;;;;;61.35;35.10;;;;;;;;;;5072374;28;20158;-67
2020/12/18 12:32:28;;;;;;;58.70;34.70;;;;;;;;;;5072794;28;20049;-67
2020/12/18 12:34:54;;;;;;;60.20;33.70;;;;;;;;;;5073058;28;20025;-67
2020/12/18 12:37:19;;;;;;;63.33;33.40;;;;;;;;;;5072565;28;20111;-67
2020/12/18 12:39:48;;;;;;;62.05;34.38;;;;;;;;;;5072619;28;20042;-67
2020/12/18 12:42:13;;;;;;;61.42;33.63;;;;;;;;;;5054238;28;20016;-67
2020/12/18 12:44:39;;;;;;;56.38;32.75;;;;;;;;;;5055376;28;20084;-66
2020/12/18 12:47:04;;;;;;;59.10;32.13;;;;;;;;;;5076253;28;20062;-67
2020/12/18 12:49:30;;;;;;;56.95;31.55;;;;;;;;;;5076212;28;20432;-66
2020/12/18 12:51:56;;;;;;;58.28;30.65;;;;;;;;;;5076694;28;20118;-67
2020/12/18 12:54:22;;;;;;;59.78;33.15;;;;;;;;;;5076362;28;20032;-67
2020/12/18 12:56:47;;;;;;;56.83;33.42;;;;;;;;;;5091401;28;20066;-67
2020/12/18 12:59:13;;;;;;;57.45;32.63;;;;;;;;;;5076023;28;20110;-67
2020/12/18 13:01:38;;;;;;;57.78;31.95;;;;;;;;;;5058125;28;20028;-67
2020/12/18 13:04:03;;;;;;;51.28;31.63;;;;;;;;;;5076023;28;20129;-67
2020/12/18 13:06:29;;;;;;;54.88;31.10;;;;;;;;;;5076010;28;20040;-67
2020/12/18 13:08:54;;;;;;;56.10;32.45;;;;;;;;;;5075922;28;20032;-67
2020/12/18 13:11:20;;;;;;;48.45;28.08;;;;;;;;;;5075887;28;20044;-67
2020/12/18 13:13:48;;;;;;;48.28;25.77;;;;;;;;;;5075901;28;20483;-67
2020/12/18 13:16:23;;;;;;;52.10;29.95;;;;;;;;;;5075841;28;20021;-67
2020/12/18 13:18:49;;;;;;;53.90;30.35;;;;;;;;;;5058216;28;20024;-66
2020/12/18 13:21:15;;;;;;;53.47;30.90;;;;;;;;;;5075281;28;20124;-66
2020/12/18 13:23:41;;;;;;;50.53;28.30;;;;;;;;;;5076068;28;20036;-66
2020/12/18 13:26:07;;;;;;;52.85;31.45;;;;;;;;;;5057877;28;20024;-66
2020/12/18 13:28:33;;;;;;;58.83;33.15;;;;;;;;;;5057706;28;20108;-66
2020/12/18 13:30:58;;;;;;;53.28;30.42;;;;;;;;;;5075445;28;20020;-66
2020/12/18 13:33:24;;;;;;;54.00;30.60;;;;;;;;;;5075816;28;20082;-66
2020/12/18 13:35:49;;;;;;;54.17;32.17;;;;;;;;;;5075346;28;20036;-66
2020/12/18 13:38:15;;;;;;;57.25;31.38;;;;;;;;;;5075695;28;20086;-67
2020/12/18 13:40:42;;;;;;;56.58;33.05;;;;;;;;;;5075769;28;20047;-67
2020/12/18 13:43:07;;;;;;;56.90;32.92;;;;;;;;;;5075654;28;20475;-67
2020/12/18 13:45:33;;;;;;;53.95;30.95;;;;;;;;;;5075293;28;20070;-67
2020/12/18 13:47:59;;;;;;;54.75;31.00;;;;;;;;;;5075219;28;20021;-67
2020/12/18 13:50:24;;;;;;;60.00;33.10;;;;;;;;;;5075376;28;20154;-67
2020/12/18 13:52:50;;;;;;;60.25;33.88;;;;;;;;;;5057187;28;20387;-67
2020/12/18 13:55:16;;;;;;;51.53;30.63;;;;;;;;;;5075422;28;20024;-67
2020/12/18 13:57:41;;;;;;;56.88;32.95;;;;;;;;;;5075043;28;20025;-67
2020/12/18 14:00:07;;;;;;;79.93;44.90;;;;;;;;;;5075214;28;20012;-67
2020/12/18 14:02:33;;;;;;;88.57;53.15;;;;;;;;;;5057344;28;20122;-67
2020/12/18 14:04:59;;;;;;;95.32;56.78;;;;;;;;;;5075148;28;20021;-67
2020/12/18 14:07:25;;;;;;;105.18;60.10;;;;;;;;;;5056931;28;20471;-68
2020/12/18 14:09:50;;;;;;;141.90;82.38;;;;;;;;;;5057001;28;20484;-69
2020/12/18 14:12:16;;;;;;;261.50;133.27;;;;;;;;;;5075017;28;20474;-68
2020/12/18 14:14:41;;;;;;;291.45;150.45;;;;;;;;;;5074842;28;20051;-68
2020/12/18 14:17:07;;;;;;;268.85;138.55;;;;;;;;;;5074653;28;20028;-68
2020/12/18 14:19:39;;;;;;;207.43;105.03;;;;;;;;;;5074645;28;20051;-68
2020/12/18 14:22:04;;;;;;;132.85;68.07;;;;;;;;;;5074130;28;20068;-68
2020/12/18 14:24:30;;;;;;;85.93;45.70;;;;;;;;;;5074451;28;20032;-68
2020/12/18 14:26:55;;;;;;;74.55;43.03;;;;;;;;;;5074513;28;20036;-68
2020/12/18 14:29:21;;;;;;;77.15;43.47;;;;;;;;;;5074926;28;20021;-68
2020/12/18 14:31:47;;;;;;;62.35;37.85;;;;;;;;;;5074350;28;20498;-68
2020/12/18 14:34:12;;;;;;;67.95;39.35;;;;;;;;;;5074342;28;20012;-67